sensor_id;sensor_type;location;lat;lon;timestamp;pressure;altitude;pressure_sealevel;temperature
61977;BMP280;45905;50.570;10.428;2023-05-20T00:01:45;98340.88;;;13.71
61977;BMP280;45905;50.570;10.428;2023-05-20T00:04:12;98340.09;;;13.70
61977;BMP280;45905;50.570;10.428;2023-05-20T00:06:40;98332.13;;;13.73
61977;BMP280;45905;50.570;10.428;2023-05-20T00:09:07;98328.63;;;13.74
61977;BMP280;45905;50.570;10.428;2023-05-20T00:11:34;98319.56;;;13.72
61977;BMP280;45905;50.570;10.428;2023-05-20T00:14:01;98330.97;;;13.75
61977;BMP280;45905;50.570;10.428;2023-05-20T00:16:28;98324.31;;;13.74
61977;BMP280;45905;50.570;10.428;2023-05-20T00:18:55;98332.72;;;13.75
61977;BMP280;45905;50.570;10.428;2023-05-20T00:21:23;98314.91;;;13.75
61977;BMP280;45905;50.570;10.428;2023-05-20T00:23:50;98315.69;;;13.75
61977;BMP280;45905;50.570;10.428;2023-05-20T00:26:18;98318.25;;;13.75
61977;BMP280;45905;50.570;10.428;2023-05-20T00:28:51;98317.28;;;13.76
61977;BMP280;45905;50.570;10.428;2023-05-20T00:31:18;98311.75;;;13.73
61977;BMP280;45905;50.570;10.428;2023-05-20T00:33:45;98315.53;;;13.77
61977;BMP280;45905;50.570;10.428;2023-05-20T00:36:12;98317.94;;;13.78
61977;BMP280;45905;50.570;10.428;2023-05-20T00:38:39;98314.44;;;13.79
61977;BMP280;45905;50.570;10.428;2023-05-20T00:41:07;98316.81;;;13.81
61977;BMP280;45905;50.570;10.428;2023-05-20T00:43:34;98315.88;;;13.82
61977;BMP280;45905;50.570;10.428;2023-05-20T00:46:01;98314.28;;;13.81
61977;BMP280;45905;50.570;10.428;2023-05-20T00:48:43;98306.31;;;13.76
61977;BMP280;45905;50.570;10.428;2023-05-20T00:51:12;98302.81;;;13.77
61977;BMP280;45905;50.570;10.428;2023-05-20T00:53:41;98302.03;;;13.76
61977;BMP280;45905;50.570;10.428;2023-05-20T00:56:09;98309.81;;;13.75
61977;BMP280;45905;50.570;10.428;2023-05-20T00:58:37;98306.31;;;13.76
61977;BMP280;45905;50.570;10.428;2023-05-20T01:01:06;98302.03;;;13.76
61977;BMP280;45905;50.570;10.428;2023-05-20T01:03:33;98302.03;;;13.76
61977;BMP280;45905;50.570;10.428;2023-05-20T01:06:01;98300.44;;;13.75
61977;BMP280;45905;50.570;10.428;2023-05-20T01:08:29;98302.19;;;13.75
61977;BMP280;45905;50.570;10.428;2023-05-20T01:11:15;98290.25;;;13.75
61977;BMP280;45905;50.570;10.428;2023-05-20T01:13:54;98296.94;;;13.76
61977;BMP280;45905;50.570;10.428;2023-05-20T01:16:24;98292.63;;;13.77
61977;BMP280;45905;50.570;10.428;2023-05-20T01:18:55;98296.13;;;13.76
61977;BMP280;45905;50.570;10.428;2023-05-20T01:21:26;98292.63;;;13.77
61977;BMP280;45905;50.570;10.428;2023-05-20T01:23:53;98277.34;;;13.77
61977;BMP280;45905;50.570;10.428;2023-05-20T01:26:20;98278.47;;;13.74
61977;BMP280;45905;50.570;10.428;2023-05-20T01:28:48;98290.72;;;13.79
61977;BMP280;45905;50.570;10.428;2023-05-20T01:31:25;98288.19;;;13.79
61977;BMP280;45905;50.570;10.428;2023-05-20T01:33:58;98290.56;;;13.80
61977;BMP280;45905;50.570;10.428;2023-05-20T01:36:30;98297.41;;;13.80
61977;BMP280;45905;50.570;10.428;2023-05-20T01:39:01;98293.44;;;13.77
61977;BMP280;45905;50.570;10.428;2023-05-20T01:41:29;98283.56;;;13.74
61977;BMP280;45905;50.570;10.428;2023-05-20T01:43:58;98291.19;;;13.74
61977;BMP280;45905;50.570;10.428;2023-05-20T01:46:25;98287.25;;;13.72
61977;BMP280;45905;50.570;10.428;2023-05-20T01:48:52;98285.66;;;13.71
61977;BMP280;45905;50.570;10.428;2023-05-20T01:51:19;98290.75;;;13.71
61977;BMP280;45905;50.570;10.428;2023-05-20T01:53:46;98286.47;;;13.72
61977;BMP280;45905;50.570;10.428;2023-05-20T01:56:14;98288.22;;;13.71
61977;BMP280;45905;50.570;10.428;2023-05-20T01:58:41;98279.94;;;13.69
61977;BMP280;45905;50.570;10.428;2023-05-20T02:01:08;98273.09;;;13.70
61977;BMP280;45905;50.570;10.428;2023-05-20T02:03:35;98269.75;;;13.69
61977;BMP280;45905;50.570;10.428;2023-05-20T02:06:03;98281.53;;;13.70
61977;BMP280;45905;50.570;10.428;2023-05-20T02:08:30;98279.13;;;13.69
61977;BMP280;45905;50.570;10.428;2023-05-20T02:10:58;98282.47;;;13.69
61977;BMP280;45905;50.570;10.428;2023-05-20T02:13:27;98272.94;;;13.71
61977;BMP280;45905;50.570;10.428;2023-05-20T02:15:54;98269.44;;;13.72
61977;BMP280;45905;50.570;10.428;2023-05-20T02:18:23;98280.25;;;13.74
61977;BMP280;45905;50.570;10.428;2023-05-20T02:20:52;98276.13;;;13.73
61977;BMP280;45905;50.570;10.428;2023-05-20T02:23:19;98272.63;;;13.74
61977;BMP280;45905;50.570;10.428;2023-05-20T02:25:47;98271.81;;;13.73
61977;BMP280;45905;50.570;10.428;2023-05-20T02:28:14;98281.81;;;13.75
61977;BMP280;45905;50.570;10.428;2023-05-20T02:30:42;98281.81;;;13.75
61977;BMP280;45905;50.570;10.428;2023-05-20T02:33:09;98279.63;;;13.72
61977;BMP280;45905;50.570;10.428;2023-05-20T02:35:36;98276.72;;;13.75
61977;BMP280;45905;50.570;10.428;2023-05-20T02:38:04;98289.00;;;13.72
61977;BMP280;45905;50.570;10.428;2023-05-20T02:40:31;98290.75;;;13.71
61977;BMP280;45905;50.570;10.428;2023-05-20T02:42:59;98279.94;;;13.69
61977;BMP280;45905;50.570;10.428;2023-05-20T02:45:28;98289.47;;;13.67
61977;BMP280;45905;50.570;10.428;2023-05-20T02:47:55;98282.19;;;13.64
61977;BMP280;45905;50.570;10.428;2023-05-20T02:50:23;98269.94;;;13.60
61977;BMP280;45905;50.570;10.428;2023-05-20T02:52:50;98266.94;;;13.64
61977;BMP280;45905;50.570;10.428;2023-05-20T02:55:17;98267.56;;;13.58
61977;BMP280;45905;50.570;10.428;2023-05-20T02:57:44;98268.22;;;13.53
61977;BMP280;45905;50.570;10.428;2023-05-20T03:00:12;98269.19;;;13.52
61977;BMP280;45905;50.570;10.428;2023-05-20T03:02:39;98267.59;;;13.51
61977;BMP280;45905;50.570;10.428;2023-05-20T03:05:07;98268.91;;;13.47
61977;BMP280;45905;50.570;10.428;2023-05-20T03:07:35;98262.22;;;13.46
61977;BMP280;45905;50.570;10.428;2023-05-20T03:10:06;98257.13;;;13.46
61977;BMP280;45905;50.570;10.428;2023-05-20T03:12:33;98259.66;;;13.46
61977;BMP280;45905;50.570;10.428;2023-05-20T03:15:00;98255.03;;;13.49
61977;BMP280;45905;50.570;10.428;2023-05-20T03:17:28;98258.38;;;13.50
61977;BMP280;45905;50.570;10.428;2023-05-20T03:19:55;98240.56;;;13.50
61977;BMP280;45905;50.570;10.428;2023-05-20T03:22:23;98256.47;;;13.52
61977;BMP280;45905;50.570;10.428;2023-05-20T03:24:50;98253.28;;;13.50
61977;BMP280;45905;50.570;10.428;2023-05-20T03:27:19;98257.56;;;13.49
61977;BMP280;45905;50.570;10.428;2023-05-20T03:29:47;98250.72;;;13.50
61977;BMP280;45905;50.570;10.428;2023-05-20T03:32:16;98251.53;;;13.50
61977;BMP280;45905;50.570;10.428;2023-05-20T03:34:43;98261.88;;;13.49
61977;BMP280;45905;50.570;10.428;2023-05-20T03:37:10;98248.53;;;13.47
61977;BMP280;45905;50.570;10.428;2023-05-20T03:39:37;98261.41;;;13.45
61977;BMP280;45905;50.570;10.428;2023-05-20T03:42:05;98253.63;;;13.47
61977;BMP280;45905;50.570;10.428;2023-05-20T03:44:33;98262.22;;;13.46
61977;BMP280;45905;50.570;10.428;2023-05-20T03:47:01;98254.59;;;13.46
61977;BMP280;45905;50.570;10.428;2023-05-20T03:49:29;98260.31;;;13.48
61977;BMP280;45905;50.570;10.428;2023-05-20T03:51:56;98262.22;;;13.46
61977;BMP280;45905;50.570;10.428;2023-05-20T03:54:24;98264.59;;;13.47
61977;BMP280;45905;50.570;10.428;2023-05-20T03:56:52;98263.63;;;13.48
61977;BMP280;45905;50.570;10.428;2023-05-20T03:59:19;98272.72;;;13.43
61977;BMP280;45905;50.570;10.428;2023-05-20T04:01:48;98272.72;;;13.43
61977;BMP280;45905;50.570;10.428;2023-05-20T04:04:15;98271.13;;;13.42
61977;BMP280;45905;50.570;10.428;2023-05-20T04:06:42;98280.19;;;13.44
61977;BMP280;45905;50.570;10.428;2023-05-20T04:09:10;98281.63;;;13.47
61977;BMP280;45905;50.570;10.428;2023-05-20T04:11:38;98297.38;;;13.42
61977;BMP280;45905;50.570;10.428;2023-05-20T04:14:05;98290.56;;;13.35
61977;BMP280;45905;50.570;10.428;2023-05-20T04:16:32;98300.72;;;13.35
61977;BMP280;45905;50.570;10.428;2023-05-20T04:19:00;98293.88;;;13.35
61977;BMP280;45905;50.570;10.428;2023-05-20T04:21:29;98297.38;;;13.35
61977;BMP280;45905;50.570;10.428;2023-05-20T04:23:57;98302.00;;;13.39
61977;BMP280;45905;50.570;10.428;2023-05-20T04:26:25;98294.97;;;13.41
61977;BMP280;45905;50.570;10.428;2023-05-20T04:28:52;98298.47;;;13.40
61977;BMP280;45905;50.570;10.428;2023-05-20T04:31:19;98298.47;;;13.40
61977;BMP280;45905;50.570;10.428;2023-05-20T04:33:53;98295.31;;;13.38
61977;BMP280;45905;50.570;10.428;2023-05-20T04:36:21;98298.34;;;13.34
61977;BMP280;45905;50.570;10.428;2023-05-20T04:38:48;98293.56;;;13.31
61977;BMP280;45905;50.570;10.428;2023-05-20T04:41:15;98287.53;;;13.32
61977;BMP280;45905;50.570;10.428;2023-05-20T04:43:43;98287.72;;;13.30
61977;BMP280;45905;50.570;10.428;2023-05-20T04:46:11;98288.97;;;13.26
61977;BMP280;45905;50.570;10.428;2023-05-20T04:48:41;98297.56;;;13.25
61977;BMP280;45905;50.570;10.428;2023-05-20T04:51:12;98285.81;;;13.24
61977;BMP280;45905;50.570;10.428;2023-05-20T04:53:39;98283.09;;;13.26
61977;BMP280;45905;50.570;10.428;2023-05-20T04:56:06;98288.97;;;13.26
61977;BMP280;45905;50.570;10.428;2023-05-20T04:58:34;98290.72;;;13.26
61977;BMP280;45905;50.570;10.428;2023-05-20T05:01:01;98296.63;;;13.26
61977;BMP280;45905;50.570;10.428;2023-05-20T05:03:29;98296.63;;;13.26
61977;BMP280;45905;50.570;10.428;2023-05-20T05:05:58;98299.94;;;13.27
61977;BMP280;45905;50.570;10.428;2023-05-20T05:08:25;98288.06;;;13.19
61977;BMP280;45905;50.570;10.428;2023-05-20T05:10:53;98290.25;;;13.22
61977;BMP280;45905;50.570;10.428;2023-05-20T05:13:20;98285.16;;;13.22
61977;BMP280;45905;50.570;10.428;2023-05-20T05:15:47;98283.41;;;13.23
61977;BMP280;45905;50.570;10.428;2023-05-20T05:18:15;98295.66;;;13.27
61977;BMP280;45905;50.570;10.428;2023-05-20T05:20:44;98296.31;;;13.29
61977;BMP280;45905;50.570;10.428;2023-05-20T05:23:12;98292.81;;;13.30
61977;BMP280;45905;50.570;10.428;2023-05-20T05:25:39;98290.88;;;13.32
61977;BMP280;45905;50.570;10.428;2023-05-20T05:28:06;98294.84;;;13.35
61977;BMP280;45905;50.570;10.428;2023-05-20T05:30:33;98292.13;;;13.36
61977;BMP280;45905;50.570;10.428;2023-05-20T05:33:01;98292.78;;;13.38
61977;BMP280;45905;50.570;10.428;2023-05-20T05:35:28;98291.81;;;13.39
61977;BMP280;45905;50.570;10.428;2023-05-20T05:37:56;98286.56;;;13.40
61977;BMP280;45905;50.570;10.428;2023-05-20T05:40:23;98283.53;;;13.45
61977;BMP280;45905;50.570;10.428;2023-05-20T05:42:50;98283.81;;;13.50
61977;BMP280;45905;50.570;10.428;2023-05-20T05:45:17;98276.03;;;13.51
61977;BMP280;45905;50.570;10.428;2023-05-20T05:47:45;98284.47;;;13.52
61977;BMP280;45905;50.570;10.428;2023-05-20T05:50:13;98284.47;;;13.52
61977;BMP280;45905;50.570;10.428;2023-05-20T05:52:41;98280.47;;;13.49
61977;BMP280;45905;50.570;10.428;2023-05-20T05:55:10;98283.97;;;13.48
61977;BMP280;45905;50.570;10.428;2023-05-20T05:57:37;98286.38;;;13.50
61977;BMP280;45905;50.570;10.428;2023-05-20T06:00:06;98275.22;;;13.51
61977;BMP280;45905;50.570;10.428;2023-05-20T06:02:44;98274.75;;;13.55
61977;BMP280;45905;50.570;10.428;2023-05-20T06:05:17;98279.19;;;13.53
61977;BMP280;45905;50.570;10.428;2023-05-20T06:07:45;98287.31;;;13.56
61977;BMP280;45905;50.570;10.428;2023-05-20T06:10:12;98280.94;;;13.60
61977;BMP280;45905;50.570;10.428;2023-05-20T06:12:39;98285.34;;;13.66
61977;BMP280;45905;50.570;10.428;2023-05-20T06:15:07;98277.88;;;13.73
61977;BMP280;45905;50.570;10.428;2023-05-20T06:17:35;98281.31;;;13.79
61977;BMP280;45905;50.570;10.428;2023-05-20T06:20:02;98274.16;;;13.83
61977;BMP280;45905;50.570;10.428;2023-05-20T06:22:30;98276.38;;;13.86
61977;BMP280;45905;50.570;10.428;2023-05-20T06:24:57;98264.94;;;13.90
61977;BMP280;45905;50.570;10.428;2023-05-20T06:27:27;98270.81;;;13.90
61977;BMP280;45905;50.570;10.428;2023-05-20T06:29:54;98265.19;;;13.94
61977;BMP280;45905;50.570;10.428;2023-05-20T06:32:22;98260.13;;;13.94
61977;BMP280;45905;50.570;10.428;2023-05-20T06:34:50;98250.44;;;13.90
61977;BMP280;45905;50.570;10.428;2023-05-20T06:37:17;98249.94;;;13.94
61977;BMP280;45905;50.570;10.428;2023-05-20T06:39:45;98248.63;;;13.98
61977;BMP280;45905;50.570;10.428;2023-05-20T06:42:13;98247.00;;;14.05
61977;BMP280;45905;50.570;10.428;2023-05-20T06:44:47;98245.53;;;14.11
61977;BMP280;45905;50.570;10.428;2023-05-20T06:47:20;98250.13;;;14.15
61977;BMP280;45905;50.570;10.428;2023-05-20T06:49:50;98251.03;;;14.22
61977;BMP280;45905;50.570;10.428;2023-05-20T06:52:17;98236.81;;;14.27
61977;BMP280;45905;50.570;10.428;2023-05-20T06:54:45;98235.34;;;14.32
61977;BMP280;45905;50.570;10.428;2023-05-20T06:57:13;98244.44;;;14.35
61977;BMP280;45905;50.570;10.428;2023-05-20T06:59:40;98250.31;;;14.35
61977;BMP280;45905;50.570;10.428;2023-05-20T07:02:07;98256.31;;;14.42
61977;BMP280;45905;50.570;10.428;2023-05-20T07:04:35;98254.72;;;14.41
61977;BMP280;45905;50.570;10.428;2023-05-20T07:07:02;98252.81;;;14.43
61977;BMP280;45905;50.570;10.428;2023-05-20T07:09:30;98255.00;;;14.46
61977;BMP280;45905;50.570;10.428;2023-05-20T07:11:57;98255.00;;;14.46
61977;BMP280;45905;50.570;10.428;2023-05-20T07:14:25;98240.66;;;14.45
61977;BMP280;45905;50.570;10.428;2023-05-20T07:16:52;98242.09;;;14.48
61977;BMP280;45905;50.570;10.428;2023-05-20T07:19:20;98232.34;;;14.51
61977;BMP280;45905;50.570;10.428;2023-05-20T07:21:47;98239.38;;;14.49
61977;BMP280;45905;50.570;10.428;2023-05-20T07:24:54;98236.81;;;14.49
61977;BMP280;45905;50.570;10.428;2023-05-20T07:27:21;98249.03;;;14.53
61977;BMP280;45905;50.570;10.428;2023-05-20T07:29:49;98241.22;;;14.55
61977;BMP280;45905;50.570;10.428;2023-05-20T07:32:16;98242.03;;;14.55
61977;BMP280;45905;50.570;10.428;2023-05-20T07:34:43;98236.13;;;14.55
61977;BMP280;45905;50.570;10.428;2023-05-20T07:37:11;98235.16;;;14.56
61977;BMP280;45905;50.570;10.428;2023-05-20T07:39:39;98239.31;;;14.57
61977;BMP280;45905;50.570;10.428;2023-05-20T07:42:06;98234.22;;;14.57
61977;BMP280;45905;50.570;10.428;2023-05-20T07:44:35;98239.31;;;14.57
61977;BMP280;45905;50.570;10.428;2023-05-20T07:47:03;98233.50;;;14.63
61977;BMP280;45905;50.570;10.428;2023-05-20T07:49:32;98224.41;;;14.68
61977;BMP280;45905;50.570;10.428;2023-05-20T07:51:59;98214.47;;;14.73
61977;BMP280;45905;50.570;10.428;2023-05-20T07:54:29;98221.69;;;14.84
61977;BMP280;45905;50.570;10.428;2023-05-20T07:56:56;98218.63;;;14.88
61977;BMP280;45905;50.570;10.428;2023-05-20T07:59:24;98214.94;;;14.90
61977;BMP280;45905;50.570;10.428;2023-05-20T08:01:51;98219.88;;;14.92
61977;BMP280;45905;50.570;10.428;2023-05-20T08:04:19;98215.72;;;14.91
61977;BMP280;45905;50.570;10.428;2023-05-20T08:06:47;98220.81;;;14.91
61977;BMP280;45905;50.570;10.428;2023-05-20T08:09:21;98218.75;;;14.94
61977;BMP280;45905;50.570;10.428;2023-05-20T08:11:52;98221.56;;;14.99
61977;BMP280;45905;50.570;10.428;2023-05-20T08:14:20;98221.22;;;15.02
61977;BMP280;45905;50.570;10.428;2023-05-20T08:16:49;98220.09;;;15.05
61977;BMP280;45905;50.570;10.428;2023-05-20T08:19:20;98222.38;;;15.00
61977;BMP280;45905;50.570;10.428;2023-05-20T08:21:48;98216.28;;;15.01
61977;BMP280;45905;50.570;10.428;2023-05-20T08:24:16;98223.84;;;14.94
61977;BMP280;45905;50.570;10.428;2023-05-20T08:26:43;98221.63;;;14.91
61977;BMP280;45905;50.570;10.428;2023-05-20T08:29:10;98226.56;;;14.93
61977;BMP280;45905;50.570;10.428;2023-05-20T08:31:38;98221.31;;;14.94
61977;BMP280;45905;50.570;10.428;2023-05-20T08:34:05;98212.78;;;15.02
61977;BMP280;45905;50.570;10.428;2023-05-20T08:36:32;98221.31;;;15.08
61977;BMP280;45905;50.570;10.428;2023-05-20T08:39:00;98211.97;;;15.15
61977;BMP280;45905;50.570;10.428;2023-05-20T08:41:28;98209.72;;;15.20
61977;BMP280;45905;50.570;10.428;2023-05-20T08:43:58;98211.56;;;15.26
61977;BMP280;45905;50.570;10.428;2023-05-20T08:46:27;98205.94;;;15.30
61977;BMP280;45905;50.570;10.428;2023-05-20T08:48:55;98197.09;;;15.33
61977;BMP280;45905;50.570;10.428;2023-05-20T08:51:25;98213.03;;;15.35
61977;BMP280;45905;50.570;10.428;2023-05-20T08:53:53;98209.06;;;15.32
61977;BMP280;45905;50.570;10.428;2023-05-20T08:56:21;98207.44;;;15.39
61977;BMP280;45905;50.570;10.428;2023-05-20T08:58:49;98204.94;;;15.46
61977;BMP280;45905;50.570;10.428;2023-05-20T09:01:17;98199.13;;;15.51
61977;BMP280;45905;50.570;10.428;2023-05-20T09:03:44;98197.53;;;15.50
61977;BMP280;45905;50.570;10.428;2023-05-20T09:06:16;98194.47;;;15.55
61977;BMP280;45905;50.570;10.428;2023-05-20T09:08:50;98198.03;;;15.60
61977;BMP280;45905;50.570;10.428;2023-05-20T09:11:19;98197.69;;;15.63
61977;BMP280;45905;50.570;10.428;2023-05-20T09:13:49;98187.94;;;15.66
61977;BMP280;45905;50.570;10.428;2023-05-20T09:16:16;98194.50;;;15.75
61977;BMP280;45905;50.570;10.428;2023-05-20T09:18:45;98192.25;;;15.86
61977;BMP280;45905;50.570;10.428;2023-05-20T09:21:12;98193.41;;;15.98
61977;BMP280;45905;50.570;10.428;2023-05-20T09:23:39;98191.19;;;16.09
61977;BMP280;45905;50.570;10.428;2023-05-20T09:26:12;98200.09;;;16.20
61977;BMP280;45905;50.570;10.428;2023-05-20T09:28:40;98202.97;;;16.31
61977;BMP280;45905;50.570;10.428;2023-05-20T09:31:08;98198.53;;;16.39
61977;BMP280;45905;50.570;10.428;2023-05-20T09:33:36;98182.03;;;16.42
61977;BMP280;45905;50.570;10.428;2023-05-20T09:36:07;98185.81;;;16.45
61977;BMP280;45905;50.570;10.428;2023-05-20T09:38:38;98181.47;;;16.46
61977;BMP280;45905;50.570;10.428;2023-05-20T09:41:10;98176.16;;;16.47
61977;BMP280;45905;50.570;10.428;2023-05-20T09:43:41;98171.06;;;16.47
61977;BMP280;45905;50.570;10.428;2023-05-20T09:46:09;98173.44;;;16.49
61977;BMP280;45905;50.570;10.428;2023-05-20T09:48:37;98177.78;;;16.55
61977;BMP280;45905;50.570;10.428;2023-05-20T09:51:05;98179.44;;;16.62
61977;BMP280;45905;50.570;10.428;2023-05-20T09:53:34;98167.31;;;16.70
61977;BMP280;45905;50.570;10.428;2023-05-20T09:56:02;98164.44;;;16.80
61977;BMP280;45905;50.570;10.428;2023-05-20T09:58:33;98157.97;;;16.90
61977;BMP280;45905;50.570;10.428;2023-05-20T10:01:01;98149.03;;;17.00
61977;BMP280;45905;50.570;10.428;2023-05-20T10:03:29;98147.50;;;17.05
61977;BMP280;45905;50.570;10.428;2023-05-20T10:06:19;98141.41;;;17.13
61977;BMP280;45905;50.570;10.428;2023-05-20T10:10:16;98136.94;;;17.21
61977;BMP280;45905;50.570;10.428;2023-05-20T10:12:32;98135.19;;;17.28
61977;BMP280;45905;50.570;10.428;2023-05-20T10:15:28;98143.31;;;17.38
61977;BMP280;45905;50.570;10.428;2023-05-20T10:21:00;98134.69;;;17.51
61977;BMP280;45905;50.570;10.428;2023-05-20T10:23:29;98130.75;;;17.55
61977;BMP280;45905;50.570;10.428;2023-05-20T10:25:57;98129.97;;;17.61
61977;BMP280;45905;50.570;10.428;2023-05-20T10:28:36;98133.56;;;17.73
61977;BMP280;45905;50.570;10.428;2023-05-20T10:31:21;98122.34;;;17.80
61977;BMP280;45905;50.570;10.428;2023-05-20T10:33:52;98125.13;;;17.85
61977;BMP280;45905;50.570;10.428;2023-05-20T10:36:28;98139.91;;;17.83
61977;BMP280;45905;50.570;10.428;2023-05-20T10:38:58;98130.63;;;17.82
61977;BMP280;45905;50.570;10.428;2023-05-20T10:41:27;98127.09;;;17.83
61977;BMP280;45905;50.570;10.428;2023-05-20T10:44:05;98123.41;;;17.85
61977;BMP280;45905;50.570;10.428;2023-05-20T10:46:34;98125.75;;;17.87
61977;BMP280;45905;50.570;10.428;2023-05-20T10:49:21;98130.91;;;17.93
61977;BMP280;45905;50.570;10.428;2023-05-20T10:51:53;98124.78;;;17.94
61977;BMP280;45905;50.570;10.428;2023-05-20T10:54:21;98122.22;;;17.94
61977;BMP280;45905;50.570;10.428;2023-05-20T10:56:55;98128.75;;;18.03
61977;BMP280;45905;50.570;10.428;2023-05-20T10:59:23;98117.91;;;18.07
61977;BMP280;45905;50.570;10.428;2023-05-20T11:01:50;98114.75;;;18.12
61977;BMP280;45905;50.570;10.428;2023-05-20T11:04:18;98121.47;;;18.19
61977;BMP280;45905;50.570;10.428;2023-05-20T11:06:50;98111.78;;;18.21
61977;BMP280;45905;50.570;10.428;2023-05-20T11:09:22;98106.88;;;18.19
61977;BMP280;45905;50.570;10.428;2023-05-20T11:11:51;98112.00;;;18.19
61977;BMP280;45905;50.570;10.428;2023-05-20T11:14:20;98108.03;;;18.23
61977;BMP280;45905;50.570;10.428;2023-05-20T11:16:52;98105.06;;;18.33
61977;BMP280;45905;50.570;10.428;2023-05-20T11:19:20;98096.22;;;18.35
61977;BMP280;45905;50.570;10.428;2023-05-20T11:21:48;98092.25;;;18.33
61977;BMP280;45905;50.570;10.428;2023-05-20T11:24:26;98087.50;;;18.30
61977;BMP280;45905;50.570;10.428;2023-05-20T11:26:55;98082.41;;;18.36
61977;BMP280;45905;50.570;10.428;2023-05-20T11:29:25;98078.03;;;18.49
61977;BMP280;45905;50.570;10.428;2023-05-20T11:31:53;98068.72;;;18.67
61977;BMP280;45905;50.570;10.428;2023-05-20T11:34:21;98079.78;;;18.74
61977;BMP280;45905;50.570;10.428;2023-05-20T11:36:57;98076.00;;;18.83
61977;BMP280;45905;50.570;10.428;2023-05-20T11:39:28;98076.22;;;18.88
61977;BMP280;45905;50.570;10.428;2023-05-20T11:41:57;98072.47;;;18.90
61977;BMP280;45905;50.570;10.428;2023-05-20T11:44:24;98072.63;;;18.95
61977;BMP280;45905;50.570;10.428;2023-05-20T11:47:00;98074.41;;;18.94
61977;BMP280;45905;50.570;10.428;2023-05-20T11:49:27;98075.59;;;18.92
61977;BMP280;45905;50.570;10.428;2023-05-20T11:51:56;98069.91;;;18.90
61977;BMP280;45905;50.570;10.428;2023-05-20T11:54:24;98076.81;;;18.83
61977;BMP280;45905;50.570;10.428;2023-05-20T11:56:53;98069.72;;;18.79
61977;BMP280;45905;50.570;10.428;2023-05-20T11:59:23;98067.13;;;18.85
61977;BMP280;45905;50.570;10.428;2023-05-20T12:01:51;98066.31;;;18.91
61977;BMP280;45905;50.570;10.428;2023-05-20T12:04:18;98067.34;;;18.90
61977;BMP280;45905;50.570;10.428;2023-05-20T12:06:46;98062.16;;;18.96
61977;BMP280;45905;50.570;10.428;2023-05-20T12:09:13;98063.75;;;18.97
61977;BMP280;45905;50.570;10.428;2023-05-20T12:11:40;98056.22;;;19.02
61977;BMP280;45905;50.570;10.428;2023-05-20T12:14:08;98044.72;;;19.11
61977;BMP280;45905;50.570;10.428;2023-05-20T12:16:36;98050.41;;;19.19
61977;BMP280;45905;50.570;10.428;2023-05-20T12:19:04;98048.41;;;19.28
61977;BMP280;45905;50.570;10.428;2023-05-20T12:21:31;98045.38;;;19.37
61977;BMP280;45905;50.570;10.428;2023-05-20T12:23:59;98045.69;;;19.53
61977;BMP280;45905;50.570;10.428;2023-05-20T12:26:28;98043.47;;;19.63
61977;BMP280;45905;50.570;10.428;2023-05-20T12:28:56;98040.50;;;19.66
61977;BMP280;45905;50.570;10.428;2023-05-20T12:31:24;98049.59;;;19.62
61977;BMP280;45905;50.570;10.428;2023-05-20T12:33:52;98044.47;;;19.62
61977;BMP280;45905;50.570;10.428;2023-05-20T12:36:19;98038.13;;;19.64
61977;BMP280;45905;50.570;10.428;2023-05-20T12:38:46;98035.75;;;19.69
61977;BMP280;45905;50.570;10.428;2023-05-20T12:41:14;98025.25;;;19.70
61977;BMP280;45905;50.570;10.428;2023-05-20T12:43:41;98035.69;;;19.75
61977;BMP280;45905;50.570;10.428;2023-05-20T12:46:08;98031.50;;;19.81
61977;BMP280;45905;50.570;10.428;2023-05-20T12:48:36;98035.28;;;19.78
61977;BMP280;45905;50.570;10.428;2023-05-20T12:51:03;98035.84;;;19.80
61977;BMP280;45905;50.570;10.428;2023-05-20T12:53:30;98028.47;;;19.90
61977;BMP280;45905;50.570;10.428;2023-05-20T12:55:58;98035.75;;;19.93
61977;BMP280;45905;50.570;10.428;2023-05-20T12:58:25;98020.47;;;19.98
61977;BMP280;45905;50.570;10.428;2023-05-20T13:00:52;98028.25;;;20.15
61977;BMP280;45905;50.570;10.428;2023-05-20T13:03:19;98024.84;;;20.21
61977;BMP280;45905;50.570;10.428;2023-05-20T13:05:47;98021.00;;;20.30
61977;BMP280;45905;50.570;10.428;2023-05-20T13:08:14;98032.84;;;20.37
61977;BMP280;45905;50.570;10.428;2023-05-20T13:10:41;98027.41;;;20.45
61977;BMP280;45905;50.570;10.428;2023-05-20T13:13:08;98026.56;;;20.51
61977;BMP280;45905;50.570;10.428;2023-05-20T13:15:35;98029.78;;;20.64
61977;BMP280;45905;50.570;10.428;2023-05-20T13:18:03;98021.50;;;20.80
61977;BMP280;45905;50.570;10.428;2023-05-20T13:20:33;98021.47;;;20.97
61977;BMP280;45905;50.570;10.428;2023-05-20T13:23:00;98006.94;;;21.20
61977;BMP280;45905;50.570;10.428;2023-05-20T13:25:28;97997.75;;;21.41
61977;BMP280;45905;50.570;10.428;2023-05-20T13:27:55;98002.28;;;21.68
61977;BMP280;45905;50.570;10.428;2023-05-20T13:30:22;98005.38;;;21.99
61977;BMP280;45905;50.570;10.428;2023-05-20T13:32:50;97990.25;;;22.25
61977;BMP280;45905;50.570;10.428;2023-05-20T13:35:17;97989.00;;;22.50
61977;BMP280;45905;50.570;10.428;2023-05-20T13:37:44;97988.66;;;22.69
61977;BMP280;45905;50.570;10.428;2023-05-20T13:40:12;97982.69;;;22.79
61977;BMP280;45905;50.570;10.428;2023-05-20T13:42:40;97979.53;;;22.89
61977;BMP280;45905;50.570;10.428;2023-05-20T13:45:07;97973.97;;;23.08
61977;BMP280;45905;50.570;10.428;2023-05-20T13:47:34;97975.34;;;23.26
61977;BMP280;45905;50.570;10.428;2023-05-20T13:50:02;97960.56;;;23.38
61977;BMP280;45905;50.570;10.428;2023-05-20T13:52:29;97961.09;;;23.51
61977;BMP280;45905;50.570;10.428;2023-05-20T13:54:57;97953.88;;;23.69
61977;BMP280;45905;50.570;10.428;2023-05-20T13:57:24;97956.69;;;23.68
61977;BMP280;45905;50.570;10.428;2023-05-20T13:59:51;97960.91;;;23.73
61977;BMP280;45905;50.570;10.428;2023-05-20T14:02:18;97958.03;;;23.70
61977;BMP280;45905;50.570;10.428;2023-05-20T14:04:45;97954.97;;;23.73
61977;BMP280;45905;50.570;10.428;2023-05-20T14:07:13;97962.38;;;23.81
61977;BMP280;45905;50.570;10.428;2023-05-20T14:09:40;97954.84;;;23.95